createdAt,value
2022-08-28T00:00:38.064Z,96829.94
2022-08-28T00:03:06.427Z,96825.88
2022-08-28T00:05:35.020Z,96825.84
2022-08-28T00:08:03.520Z,96834.94
2022-08-28T00:10:31.398Z,96824.72
2022-08-28T00:13:00.005Z,96834.69
2022-08-28T00:15:32.657Z,96827.06
2022-08-28T00:18:01.401Z,96825.63
2022-08-28T00:20:30.193Z,96832.59
2022-08-28T00:22:58.404Z,96831.28
2022-08-28T00:25:28.964Z,96832.59
2022-08-28T00:27:57.920Z,96830.94
2022-08-28T00:30:30.508Z,96831.13
2022-08-28T00:33:01.093Z,96842.19
2022-08-28T00:35:29.664Z,96842.31
2022-08-28T00:37:58.023Z,96843.41
2022-08-28T00:40:32.824Z,96837.53
2022-08-28T00:43:02.622Z,96841.09
2022-08-28T00:45:39.289Z,96844.84
2022-08-28T00:48:07.884Z,96845.53
2022-08-28T00:50:51.328Z,96843.84
2022-08-28T00:53:20.095Z,96841.19
2022-08-28T00:55:50.362Z,96846.75
2022-08-28T00:58:20.145Z,96842.59
2022-08-28T01:00:49.934Z,96850.94
2022-08-28T01:03:18.005Z,96845.78
2022-08-28T01:05:48.001Z,96844.72
2022-08-28T01:08:16.350Z,96845.94
2022-08-28T01:10:49.396Z,96845.53
2022-08-28T01:13:18.118Z,96849.28
2022-08-28T01:15:46.670Z,96846.25
2022-08-28T01:18:17.095Z,96848.56
2022-08-28T01:20:53.206Z,96847.97
2022-08-28T01:23:32.253Z,96844.22
2022-08-28T01:26:01.990Z,96847.84
2022-08-28T01:28:39.829Z,96856.03
2022-08-28T01:31:10.590Z,96845.09
2022-08-28T01:33:41.386Z,96848.69
2022-08-28T01:36:12.204Z,96835.22
2022-08-28T01:38:41.360Z,96844.66
2022-08-28T01:41:11.832Z,96838.53
2022-08-28T01:43:41.363Z,96847.53
2022-08-28T01:46:09.886Z,96855.22
2022-08-28T01:48:42.663Z,96845.97
2022-08-28T01:51:12.414Z,96844.91
2022-08-28T01:53:41.486Z,96842.31
2022-08-28T01:56:12.970Z,96848.88
2022-08-28T01:58:41.915Z,96849.91
2022-08-28T02:01:11.937Z,96861.59
2022-08-28T02:03:41.758Z,96855.63
2022-08-28T02:06:10.142Z,96859.34
2022-08-28T02:08:37.941Z,96859.72
2022-08-28T02:11:08.177Z,96859.47
2022-08-28T02:13:38.691Z,96858.41
2022-08-28T02:16:09.261Z,96858.75
2022-08-28T02:18:38.798Z,96864.03
2022-08-28T02:21:08.614Z,96864.53
2022-08-28T02:23:37.931Z,96861.50
2022-08-28T02:26:05.890Z,96866.44
2022-08-28T02:28:33.810Z,96850.22
2022-08-28T02:31:03.100Z,96856.09
2022-08-28T02:33:31.039Z,96861.69
2022-08-28T02:35:58.896Z,96853.97
2022-08-28T02:38:26.826Z,96847.69
2022-08-28T02:40:54.574Z,96850.78
2022-08-28T02:43:22.420Z,96852.22
2022-08-28T02:45:50.277Z,96858.22
2022-08-28T02:48:19.898Z,96851.03
2022-08-28T02:50:47.883Z,96855.00
2022-08-28T02:53:15.651Z,96848.03
2022-08-28T02:55:43.411Z,96860.63
2022-08-28T02:58:11.333Z,96860.63
2022-08-28T03:00:39.231Z,96855.06
2022-08-28T03:03:06.997Z,96850.72
2022-08-28T03:05:36.099Z,96848.19
2022-08-28T03:08:04.374Z,96856.03
2022-08-28T03:10:32.569Z,96853.56
2022-08-28T03:13:00.412Z,96852.47
2022-08-28T03:15:28.417Z,96849.25
2022-08-28T03:17:56.263Z,96854.38
2022-08-28T03:20:24.075Z,96848.16
2022-08-28T03:23:25.530Z,96849.09
2022-08-28T03:25:53.368Z,96854.34
2022-08-28T03:28:21.445Z,96851.25
2022-08-28T03:30:49.707Z,96849.72
2022-08-28T03:33:17.769Z,96840.28
2022-08-28T03:35:45.849Z,96844.03
2022-08-28T03:38:16.061Z,96842.38
2022-08-28T03:40:46.434Z,96850.50
2022-08-28T03:43:15.976Z,96861.03
2022-08-28T03:45:52.772Z,96848.38
2022-08-28T03:48:21.027Z,96852.19
2022-08-28T03:50:49.002Z,96849.75
2022-08-28T03:53:18.165Z,96847.84
2022-08-28T03:55:46.263Z,96854.81
2022-08-28T03:58:18.860Z,96858.63
2022-08-28T04:00:47.398Z,96858.63
2022-08-28T04:03:15.613Z,96851.56
2022-08-28T04:05:44.992Z,96861.59
2022-08-28T04:08:15.986Z,96876.19
2022-08-28T04:10:47.596Z,96864.31
2022-08-28T04:13:17.231Z,96861.22
2022-08-28T04:15:45.860Z,96876.69
2022-08-28T04:18:13.919Z,96876.16
2022-08-28T04:20:41.766Z,96874.66
2022-08-28T04:23:14.225Z,96877.41
2022-08-28T04:25:42.042Z,96876.69
2022-08-28T04:28:11.249Z,96875.53
2022-08-28T04:30:41.581Z,96874.88
2022-08-28T04:33:10.539Z,96885.75
2022-08-28T04:35:38.592Z,96879.41
2022-08-28T04:38:06.406Z,96893.41
2022-08-28T04:40:34.238Z,96894.66
2022-08-28T04:43:02.149Z,96897.28
2022-08-28T04:45:31.339Z,96902.03
2022-08-28T04:48:00.256Z,96902.72
2022-08-28T04:50:31.141Z,96900.38
2022-08-28T04:52:59.237Z,96901.00
2022-08-28T04:55:36.423Z,96906.03
2022-08-28T04:58:16.135Z,96904.47
2022-08-28T05:00:48.020Z,96913.03
2022-08-28T05:03:17.636Z,96910.28
2022-08-28T05:05:47.235Z,96914.09
2022-08-28T05:08:16.845Z,96911.53
2022-08-28T05:10:46.371Z,96912.19
2022-08-28T05:13:15.688Z,96915.78
2022-08-28T05:15:47.115Z,96919.13
2022-08-28T05:18:16.934Z,96920.72
2022-08-28T05:20:47.519Z,96918.72
2022-08-28T05:23:16.947Z,96917.00
2022-08-28T05:25:48.308Z,96913.44
2022-08-28T05:28:18.106Z,96918.81
2022-08-28T05:30:48.144Z,96922.06
2022-08-28T05:33:17.041Z,96936.41
2022-08-28T05:35:47.302Z,96934.56
2022-08-28T05:38:17.040Z,96932.38
2022-08-28T05:40:47.849Z,96937.97
2022-08-28T05:43:17.456Z,96936.28
2022-08-28T05:45:46.769Z,96939.34
2022-08-28T05:48:16.267Z,96948.31
2022-08-28T05:50:47.477Z,96941.06
2022-08-28T05:53:15.597Z,96948.97
2022-08-28T05:55:43.473Z,96944.06
2022-08-28T05:58:25.396Z,96946.19
2022-08-28T06:00:54.556Z,96945.88
2022-08-28T06:03:22.995Z,96945.03
2022-08-28T06:05:55.638Z,96955.75
2022-08-28T06:08:23.528Z,96952.81
2022-08-28T06:10:51.296Z,96952.00
2022-08-28T06:13:19.106Z,96958.59
2022-08-28T06:15:48.319Z,96953.34
2022-08-28T06:18:18.143Z,96959.53
2022-08-28T06:20:47.348Z,96957.84
2022-08-28T06:23:24.067Z,96956.00
2022-08-28T06:25:52.997Z,96957.25
2022-08-28T06:28:22.945Z,96951.16
2022-08-28T06:31:15.935Z,96958.94
2022-08-28T06:33:42.490Z,96953.50
2022-08-28T06:36:11.280Z,96955.41
2022-08-28T06:38:39.464Z,96963.03
2022-08-28T06:41:10.099Z,96961.06
2022-08-28T06:43:38.191Z,96959.94
2022-08-28T06:46:06.110Z,96969.91
2022-08-28T06:48:34.116Z,96971.41
2022-08-28T06:51:07.710Z,96975.19
2022-08-28T06:53:35.532Z,96972.22
2022-08-28T06:56:07.677Z,96973.50
2022-08-28T06:58:36.801Z,96979.88
2022-08-28T07:01:07.640Z,96981.28
2022-08-28T07:03:36.041Z,96985.09
2022-08-28T07:06:15.153Z,96987.38
2022-08-28T07:08:44.660Z,96989.59
2022-08-28T07:11:16.094Z,96986.13
2022-08-28T07:13:45.584Z,96989.72
2022-08-28T07:16:15.594Z,96998.56
2022-08-28T07:18:43.969Z,97003.09
2022-08-28T07:21:14.581Z,96998.75
2022-08-28T07:23:44.108Z,97005.53
2022-08-28T07:26:15.666Z,97005.09
2022-08-28T07:28:43.885Z,97006.28
2022-08-28T07:31:16.174Z,97005.38
2022-08-28T07:33:45.034Z,97009.00
2022-08-28T07:36:28.806Z,97013.91
2022-08-28T07:39:02.347Z,97007.53
2022-08-28T07:41:32.696Z,97008.97
2022-08-28T07:44:18.325Z,97016.16
2022-08-28T07:46:46.669Z,97012.47
2022-08-28T07:49:17.182Z,97019.78
2022-08-28T07:51:46.645Z,97026.97
2022-08-28T07:54:16.909Z,97020.88
2022-08-28T07:56:46.518Z,97027.00
2022-08-28T07:59:16.892Z,97027.00
2022-08-28T08:01:47.758Z,97034.69
2022-08-28T08:04:17.988Z,97040.28
2022-08-28T08:06:47.098Z,97049.22
2022-08-28T08:09:17.625Z,97050.72
2022-08-28T08:11:46.572Z,97053.09
2022-08-28T08:14:15.025Z,97048.25
2022-08-28T08:16:44.714Z,97054.59
2022-08-28T08:19:14.828Z,97058.72
2022-08-28T08:21:44.670Z,97065.78
2022-08-28T08:24:19.781Z,97059.97
2022-08-28T08:26:55.206Z,97064.53
2022-08-28T08:29:28.279Z,97066.69
2022-08-28T08:31:58.068Z,97068.53
2022-08-28T08:34:26.463Z,97064.19
2022-08-28T08:36:54.279Z,97067.66
2022-08-28T08:39:23.436Z,97079.25
2022-08-28T08:41:54.649Z,97072.81
2022-08-28T08:44:34.080Z,97075.25
2022-08-28T08:47:15.294Z,97074.94
2022-08-28T08:49:50.874Z,97071.66
2022-08-28T08:52:38.344Z,97075.03
2022-08-28T08:55:17.580Z,97074.72
2022-08-28T08:57:49.291Z,97075.97
2022-08-28T09:00:19.562Z,97082.28
2022-08-28T09:02:54.326Z,97085.16
2022-08-28T09:05:29.624Z,97093.78
2022-08-28T09:08:02.610Z,97088.28
2022-08-28T09:10:40.126Z,97086.19
2022-08-28T09:13:18.658Z,97082.91
2022-08-28T09:15:50.498Z,97091.69
2022-08-28T09:18:22.827Z,97085.78
2022-08-28T09:20:51.883Z,97093.38
2022-08-28T09:23:20.548Z,97096.72
2022-08-28T09:25:56.041Z,97094.81
2022-08-28T09:28:30.341Z,97106.22
2022-08-28T09:31:02.887Z,97099.66
2022-08-28T09:33:35.966Z,97098.75
2022-08-28T09:36:32.627Z,97103.44
2022-08-28T09:39:07.569Z,97106.41
2022-08-28T09:41:57.766Z,97104.63
2022-08-28T09:44:25.922Z,97110.00
2022-08-28T09:46:54.060Z,97111.59
2022-08-28T09:49:29.006Z,97101.56
2022-08-28T09:51:59.532Z,97109.25
2022-08-28T09:54:33.928Z,97109.16
2022-08-28T09:57:04.502Z,97113.69
2022-08-28T09:59:32.649Z,97107.69
2022-08-28T10:02:20.903Z,97115.16
2022-08-28T10:04:59.893Z,97120.09
2022-08-28T10:07:36.896Z,97123.69
2022-08-28T10:10:18.770Z,97125.69
2022-08-28T10:13:01.526Z,97118.56
2022-08-28T10:15:33.827Z,97122.63
2022-08-28T10:18:34.070Z,97125.44
2022-08-28T10:21:10.510Z,97123.94
2022-08-28T10:23:49.509Z,97129.75
2022-08-28T10:26:30.114Z,97131.47
2022-08-28T10:29:09.903Z,97121.25
2022-08-28T10:31:46.807Z,97133.47
2022-08-28T10:34:29.466Z,97137.69
2022-08-28T10:37:04.119Z,97145.16
2022-08-28T10:39:47.289Z,97138.22
2022-08-28T10:42:20.757Z,97142.31
2022-08-28T10:44:53.489Z,97134.59
2022-08-28T10:47:23.649Z,97141.16
2022-08-28T10:49:58.634Z,97137.06
2022-08-28T10:52:31.981Z,97139.53
2022-08-28T10:55:06.015Z,97133.63
2022-08-28T10:57:39.917Z,97130.50
2022-08-28T11:00:13.142Z,97127.72
2022-08-28T11:02:43.168Z,97133.00
2022-08-28T11:05:11.802Z,97134.34
2022-08-28T11:07:45.638Z,97146.00
2022-08-28T11:10:20.971Z,97145.44
2022-08-28T11:12:51.383Z,97150.88
2022-08-28T11:15:44.444Z,97148.47
2022-08-28T11:19:05.525Z,97141.47
2022-08-28T11:21:38.160Z,97138.53
2022-08-28T11:24:10.433Z,97142.25
2022-08-28T11:26:47.045Z,97143.59
2022-08-28T11:29:49.398Z,97146.28
2022-08-28T11:32:41.377Z,97151.88
2022-08-28T11:35:48.465Z,97159.53
2022-08-28T11:38:53.520Z,97155.44
2022-08-28T11:41:24.501Z,97159.06
2022-08-28T11:44:13.465Z,97159.03
2022-08-28T11:46:42.888Z,97162.50
2022-08-28T11:49:45.047Z,97162.59
2022-08-28T11:52:44.094Z,97156.06
2022-08-28T11:55:22.883Z,97156.50
2022-08-28T12:00:49.371Z,97156.84
2022-08-28T12:03:27.567Z,97155.44
2022-08-28T12:05:59.013Z,97159.66
2022-08-28T12:09:09.912Z,97149.66
2022-08-28T12:12:06.573Z,97157.22
2022-08-28T12:15:08.403Z,97162.25
2022-08-28T12:17:46.891Z,97159.88
2022-08-28T12:20:24.024Z,97158.94
2022-08-28T12:22:55.831Z,97155.91
2022-08-28T12:25:33.269Z,97159.66
2022-08-28T12:28:08.082Z,97155.19
2022-08-28T12:30:50.519Z,97154.09
2022-08-28T12:33:26.620Z,97153.88
2022-08-28T12:36:02.198Z,97147.56
2022-08-28T12:38:34.535Z,97155.50
2022-08-28T12:41:03.303Z,97150.69
2022-08-28T12:43:35.751Z,97149.78
2022-08-28T12:46:20.073Z,97147.84
2022-08-28T12:48:51.250Z,97151.09
2022-08-28T12:51:22.423Z,97158.09
2022-08-28T12:53:55.184Z,97153.03
2022-08-28T12:56:25.399Z,97150.63
2022-08-28T12:58:53.857Z,97145.94
2022-08-28T13:01:29.401Z,97146.91
2022-08-28T13:03:59.862Z,97147.88
2022-08-28T13:06:30.243Z,97142.78
2022-08-28T13:09:03.317Z,97149.69
2022-08-28T13:11:34.882Z,97153.25
2022-08-28T13:14:04.320Z,97150.16
2022-08-28T13:16:39.972Z,97153.09
2022-08-28T13:19:14.581Z,97148.53
2022-08-28T13:21:58.488Z,97145.16
2022-08-28T13:24:43.896Z,97155.19
2022-08-28T13:27:25.599Z,97151.69
2022-08-28T13:30:00.036Z,97150.66
2022-08-28T13:32:30.500Z,97150.56
2022-08-28T13:35:33.409Z,97150.16
2022-08-28T13:38:03.779Z,97155.56
2022-08-28T13:40:57.458Z,97156.03
2022-08-28T13:43:28.137Z,97149.44
2022-08-28T13:45:56.489Z,97161.28
2022-08-28T13:48:26.823Z,97156.22
2022-08-28T13:50:59.810Z,97149.81
2022-08-28T13:53:27.639Z,97154.28
2022-08-28T13:55:58.417Z,97150.31
2022-08-28T13:58:26.354Z,97151.56
2022-08-28T14:00:55.180Z,97154.88
2022-08-28T14:03:38.396Z,97157.41
2022-08-28T14:06:09.223Z,97168.00
2022-08-28T14:08:37.084Z,97164.94
2022-08-28T14:11:07.234Z,97161.78
2022-08-28T14:13:35.205Z,97156.75
2022-08-28T14:16:05.723Z,97161.78
2022-08-28T14:18:33.832Z,97156.91
2022-08-28T14:21:01.697Z,97151.38
2022-08-28T14:23:29.654Z,97149.59
2022-08-28T14:25:57.464Z,97163.75
2022-08-28T14:28:26.621Z,97155.13
2022-08-28T14:30:54.563Z,97151.28
2022-08-28T14:33:22.687Z,97152.41
2022-08-28T14:35:51.086Z,97150.16
2022-08-28T14:38:19.095Z,97156.88
2022-08-28T14:40:46.887Z,97161.47
2022-08-28T14:43:15.506Z,97152.81
2022-08-28T14:45:46.784Z,97156.78
2022-08-28T14:48:15.671Z,97149.66
2022-08-28T14:50:44.670Z,97154.88
2022-08-28T14:53:14.574Z,97161.50
2022-08-28T14:55:44.622Z,97156.59
2022-08-28T14:58:13.561Z,97163.34
2022-08-28T15:00:42.531Z,97161.16
2022-08-28T15:03:12.790Z,97163.75
2022-08-28T15:05:41.621Z,97166.84
2022-08-28T15:08:10.385Z,97173.59
2022-08-28T15:10:39.266Z,97180.19
2022-08-28T15:13:09.971Z,97180.53
2022-08-28T15:15:39.418Z,97178.75
2022-08-28T15:18:08.006Z,97190.06
2022-08-28T15:20:40.910Z,97178.19
2022-08-28T15:23:10.007Z,97184.03
2022-08-28T15:25:43.338Z,97177.28
2022-08-28T15:28:11.689Z,97187.47
2022-08-28T15:30:49.874Z,97179.75
2022-08-28T15:33:18.266Z,97191.41
2022-08-28T15:35:47.585Z,97184.91
2022-08-28T15:38:15.531Z,97182.25
2022-08-28T15:41:01.392Z,97188.63
2022-08-28T15:43:29.430Z,97195.47
2022-08-28T15:45:57.311Z,97186.28
2022-08-28T15:48:25.302Z,97182.47
2022-08-28T15:50:54.726Z,97185.25
2022-08-28T15:53:22.705Z,97184.25
2022-08-28T15:55:51.008Z,97189.88
2022-08-28T15:58:19.634Z,97188.34
2022-08-28T16:00:47.654Z,97185.00
2022-08-28T16:03:15.698Z,97186.34
2022-08-28T16:05:45.678Z,97179.53
2022-08-28T16:08:15.222Z,97175.22
2022-08-28T16:10:48.820Z,97182.19
2022-08-28T16:13:17.584Z,97184.75
2022-08-28T16:15:46.602Z,97185.75
2022-08-28T16:18:16.551Z,97178.66
2022-08-28T16:20:46.340Z,97173.06
2022-08-28T16:23:16.135Z,97186.78
2022-08-28T16:25:45.050Z,97176.34
2022-08-28T16:28:14.444Z,97177.16
2022-08-28T16:30:43.848Z,97169.56
2022-08-28T16:33:31.520Z,97175.25
2022-08-28T16:36:02.273Z,97170.91
2022-08-28T16:38:31.487Z,97173.31
2022-08-28T16:40:59.477Z,97172.75
2022-08-28T16:43:27.629Z,97173.72
2022-08-28T16:45:56.437Z,97177.88
2022-08-28T16:48:24.576Z,97179.56
2022-08-28T16:50:52.425Z,97180.69
2022-08-28T16:53:27.261Z,97171.03
2022-08-28T16:55:58.064Z,97175.38
2022-08-28T16:58:26.072Z,97169.91
2022-08-28T17:00:55.060Z,97170.41
2022-08-28T17:03:26.510Z,97169.63
2022-08-28T17:05:56.247Z,97167.69
2022-08-28T17:08:24.605Z,97167.00
2022-08-28T17:10:52.464Z,97166.00
2022-08-28T17:13:23.792Z,97167.81
2022-08-28T17:15:52.685Z,97172.97
2022-08-28T17:18:20.697Z,97173.81
2022-08-28T17:21:07.078Z,97170.72
2022-08-28T17:23:44.440Z,97179.47
2022-08-28T17:26:15.365Z,97176.22
2022-08-28T17:28:44.921Z,97182.50
2022-08-28T17:31:14.284Z,97183.47
2022-08-28T17:33:45.191Z,97187.88
2022-08-28T17:36:32.460Z,97196.19
2022-08-28T17:39:01.577Z,97201.25
2022-08-28T17:41:29.845Z,97199.53
2022-08-28T17:43:59.133Z,97197.75
2022-08-28T17:46:27.231Z,97203.13
2022-08-28T17:49:00.645Z,97202.03
2022-08-28T17:51:42.074Z,97199.09
2022-08-28T17:54:12.934Z,97207.78
2022-08-28T17:56:41.153Z,97202.44
2022-08-28T17:59:11.031Z,97209.75
2022-08-28T18:01:39.409Z,97209.75
2022-08-28T18:04:07.600Z,97212.84
2022-08-28T18:06:36.055Z,97214.63
2022-08-28T18:09:06.730Z,97214.44
2022-08-28T18:11:38.421Z,97222.94
2022-08-28T18:14:07.054Z,97225.97
2022-08-28T18:16:38.495Z,97230.78
2022-08-28T18:19:08.086Z,97224.41
2022-08-28T18:21:36.660Z,97229.19
2022-08-28T18:24:05.344Z,97238.56
2022-08-28T18:26:33.255Z,97240.06
2022-08-28T18:29:03.764Z,97242.38
2022-08-28T18:31:34.049Z,97249.44
2022-08-28T18:34:03.905Z,97249.78
2022-08-28T18:36:31.905Z,97250.59
2022-08-28T18:38:59.744Z,97250.69
2022-08-28T18:41:43.206Z,97251.00
2022-08-28T18:44:14.527Z,97253.81
2022-08-28T18:46:43.094Z,97260.34
2022-08-28T18:49:13.049Z,97257.06
2022-08-28T18:51:41.796Z,97253.72
2022-08-28T18:54:09.904Z,97263.47
2022-08-28T18:56:38.383Z,97265.69
2022-08-28T18:59:06.654Z,97264.69
2022-08-28T19:01:35.006Z,97258.03
2022-08-28T19:04:03.185Z,97262.16
2022-08-28T19:06:33.947Z,97263.13
2022-08-28T19:09:01.787Z,97270.28
2022-08-28T19:11:31.332Z,97270.56
2022-08-28T19:13:59.631Z,97268.31
2022-08-28T19:16:32.663Z,97263.06
2022-08-28T19:19:01.296Z,97265.03
2022-08-28T19:21:30.187Z,97261.84
2022-08-28T19:24:00.132Z,97267.56
2022-08-28T19:26:29.118Z,97267.56
2022-08-28T19:28:57.685Z,97273.50
2022-08-28T19:31:28.275Z,97277.13
2022-08-28T19:33:57.300Z,97274.16
2022-08-28T19:36:27.143Z,97279.41
2022-08-28T19:38:55.166Z,97280.53
2022-08-28T19:41:24.650Z,97280.53
2022-08-28T19:43:53.422Z,97276.28
2022-08-28T19:46:24.700Z,97288.59
2022-08-28T19:48:54.740Z,97286.16
2022-08-28T19:51:24.838Z,97298.75
2022-08-28T19:53:59.025Z,97301.00
2022-08-28T19:56:30.242Z,97297.97
2022-08-28T19:59:01.055Z,97305.50
2022-08-28T20:01:31.521Z,97313.19
2022-08-28T20:04:01.435Z,97311.03
2022-08-28T20:06:32.140Z,97318.56
2022-08-28T20:09:00.465Z,97309.72
2022-08-28T20:11:30.799Z,97320.69
2022-08-28T20:14:03.875Z,97325.59
2022-08-28T20:16:34.641Z,97325.97
2022-08-28T20:19:03.932Z,97327.63
2022-08-28T20:21:37.327Z,97333.09
2022-08-28T20:24:07.294Z,97338.63
2022-08-28T20:26:37.644Z,97333.00
2022-08-28T20:29:07.232Z,97323.72
2022-08-28T20:31:35.697Z,97330.66
2022-08-28T20:34:04.066Z,97334.69
2022-08-28T20:36:31.887Z,97332.13
2022-08-28T20:39:00.028Z,97335.13
2022-08-28T20:41:28.459Z,97335.28
2022-08-28T20:43:58.017Z,97332.28
2022-08-28T20:46:26.240Z,97326.25
2022-08-28T20:48:54.071Z,97329.69
2022-08-28T20:51:42.417Z,97333.72
2022-08-28T20:54:10.499Z,97331.50
2022-08-28T20:56:38.762Z,97325.50
2022-08-28T20:59:08.170Z,97329.28
2022-08-28T21:01:36.433Z,97330.22
2022-08-28T21:04:05.157Z,97333.56
2022-08-28T21:06:33.678Z,97334.84
2022-08-28T21:09:01.575Z,97333.06
2022-08-28T21:11:29.458Z,97339.75
2022-08-28T21:13:57.256Z,97340.69
2022-08-28T21:16:26.444Z,97347.31
2022-08-28T21:19:14.430Z,97341.88
2022-08-28T21:21:42.371Z,97332.72
2022-08-28T21:24:13.636Z,97337.22
2022-08-28T21:26:42.705Z,97339.59
2022-08-28T21:29:11.862Z,97346.59
2022-08-28T21:31:48.727Z,97335.34
2022-08-28T21:34:17.466Z,97339.84
2022-08-28T21:36:50.445Z,97337.97
2022-08-28T21:39:20.348Z,97337.41
2022-08-28T21:41:48.769Z,97339.00
2022-08-28T21:44:17.517Z,97343.22
2022-08-28T21:46:47.003Z,97352.41
2022-08-28T21:49:14.730Z,97347.91
2022-08-28T21:51:42.561Z,97354.34
2022-08-28T21:54:10.549Z,97358.16
2022-08-28T21:56:38.370Z,97357.72
2022-08-28T21:59:06.356Z,97341.06
2022-08-28T22:01:34.345Z,97352.06
2022-08-28T22:04:04.170Z,97356.47
2022-08-28T22:06:32.300Z,97362.06
2022-08-28T22:09:00.120Z,97366.97
2022-08-28T22:11:28.459Z,97358.09
2022-08-28T22:13:56.770Z,97361.22
2022-08-28T22:16:25.612Z,97354.94
2022-08-28T22:18:53.681Z,97358.34
2022-08-28T22:21:44.428Z,97362.56
2022-08-28T22:24:13.240Z,97356.41
2022-08-28T22:26:41.928Z,97361.22
2022-08-28T22:29:10.089Z,97358.19
2022-08-28T22:32:04.165Z,97350.47
2022-08-28T22:34:32.160Z,97357.66
2022-08-28T22:37:02.160Z,97354.94
2022-08-28T22:39:29.954Z,97352.78
2022-08-28T22:41:57.720Z,97356.31
2022-08-28T22:44:25.477Z,97363.44
2022-08-28T22:46:53.316Z,97364.44
2022-08-28T22:49:21.084Z,97368.16
2022-08-28T22:51:49.216Z,97367.50
2022-08-28T22:54:18.743Z,97367.50
2022-08-28T22:56:46.510Z,97361.97
2022-08-28T22:59:14.296Z,97364.94
2022-08-28T23:01:43.364Z,97368.97
2022-08-28T23:04:11.701Z,97363.84
2022-08-28T23:06:40.314Z,97366.19
2022-08-28T23:09:08.710Z,97366.06
2022-08-28T23:11:38.355Z,97368.75
2022-08-28T23:14:06.644Z,97370.84
2022-08-28T23:16:35.310Z,97374.38
2022-08-28T23:19:07.882Z,97366.75
2022-08-28T23:21:43.495Z,97365.91
2022-08-28T23:24:12.554Z,97370.47
2022-08-28T23:26:41.708Z,97370.47
2022-08-28T23:29:10.151Z,97369.41
2022-08-28T23:31:38.471Z,97365.72
2022-08-28T23:34:08.239Z,97372.50
2022-08-28T23:36:37.121Z,97372.47
2022-08-28T23:39:07.777Z,97363.84
2022-08-28T23:41:35.612Z,97365.69
2022-08-28T23:44:08.501Z,97372.47
2022-08-28T23:46:41.382Z,97369.09
2022-08-28T23:49:09.791Z,97367.00
2022-08-28T23:51:37.845Z,97369.81
2022-08-28T23:54:06.849Z,97367.13
2022-08-28T23:56:34.863Z,97366.78
2022-08-28T23:59:05.066Z,97371.44
